Clayton Lake, Maine
Current Conditions -  °F | °C
As of 8:55 AM on Friday 24 Oct 2014 (Local Time) from KPQI Reporting Station
Overcast Overcast  
Wind Chill: 30°   Ceiling: 5000
Heat Index: 39°   Visibility: 10mi
Dew Point: 36°   Wind: 17mph
Humidity: 87%   Direction: 360°N
Pressure: 29.77"   Gusts: NA
Location:  46.61°N, 69.52°W
Report Text: KPQI 241255Z AUTO 36015KT 10SM SCT044 OVC050 04/02 A2977 RMK AO1 P0013
Loading
Personal Weather Stations






























Interactive Weather Map
Tropical Storm Tracking
New forecast layout! Learn more

10-Day Weather Forecast

Advertisements
Track Severe Weather on mobile